createdAt,value
2017-02-14T00:09:23.545Z,280.7
2017-02-14T00:20:19.003Z,280
2017-02-14T00:31:17.786Z,279.2
2017-02-14T00:42:18.085Z,278.9
2017-02-14T00:53:18.399Z,280.3
2017-02-14T01:04:17.518Z,279.4
2017-02-14T01:15:18.232Z,279.9
2017-02-14T01:26:19.467Z,280.4
2017-02-14T01:37:17.539Z,280.1
2017-02-14T01:48:18.458Z,280.4
2017-02-14T01:59:18.339Z,280.1
2017-02-14T02:10:18.335Z,279.4
2017-02-14T02:21:17.442Z,281.7
2017-02-14T02:32:17.611Z,280.4
2017-02-14T02:43:17.986Z,279.8
2017-02-14T02:54:17.690Z,280.7
2017-02-14T03:05:17.785Z,281.3
2017-02-14T03:16:17.828Z,281.4
2017-02-14T03:27:17.415Z,282.2
2017-02-14T03:38:18.334Z,282
2017-02-14T03:49:17.954Z,282.3
2017-02-14T04:00:18.208Z,282.7
2017-02-14T04:11:18.122Z,282
2017-02-14T04:22:18.380Z,282.2
2017-02-14T04:33:18.067Z,282.2
2017-02-14T04:44:17.886Z,282.2
2017-02-14T04:55:17.866Z,281.5
2017-02-14T05:06:18.319Z,281.8
2017-02-14T05:17:18.044Z,282.4
2017-02-14T05:28:18.339Z,282.8
2017-02-14T05:34:17.947Z,282.5
2017-02-14T05:40:17.976Z,282.6
2017-02-14T05:46:17.598Z,282.5
2017-02-14T05:52:17.741Z,282.4
2017-02-14T05:58:17.867Z,282.6
2017-02-14T06:04:18.448Z,282.8
2017-02-14T06:10:18.271Z,282.8
2017-02-14T06:16:17.952Z,282.4
2017-02-14T06:22:17.782Z,282.7
2017-02-14T06:28:18.747Z,282.6
2017-02-14T06:34:18.213Z,282.2
2017-02-14T06:40:18.182Z,282.8
2017-02-14T06:46:18.299Z,282.3
2017-02-14T06:52:18.288Z,282.5
2017-02-14T06:58:18.644Z,282.2
2017-02-14T07:04:17.748Z,282.4
2017-02-14T07:10:17.706Z,282.9
2017-02-14T07:16:17.866Z,282.9
2017-02-14T07:22:18.255Z,282.6
2017-02-14T07:28:18.683Z,282.3
2017-02-14T07:34:17.941Z,282.5
2017-02-14T07:40:18.348Z,282
2017-02-14T07:46:18.335Z,282
2017-02-14T07:52:18.023Z,281.8
2017-02-14T07:58:17.322Z,281.1
2017-02-14T08:04:17.632Z,281.6
2017-02-14T08:10:18.227Z,281.7
2017-02-14T08:16:17.813Z,281.8
2017-02-14T08:22:18.078Z,281.3
2017-02-14T08:28:18.134Z,282.2
2017-02-14T08:34:18.227Z,282.7
2017-02-14T08:40:18.225Z,282.7
2017-02-14T08:46:17.823Z,282
2017-02-14T08:52:18.328Z,282.7
2017-02-14T08:58:17.318Z,283.9
2017-02-14T09:04:18.397Z,283.6
2017-02-14T09:10:18.559Z,283.4
2017-02-14T09:16:18.306Z,283.6
2017-02-14T09:22:18.129Z,283
2017-02-14T09:28:18.584Z,284
2017-02-14T09:34:18.831Z,284.4
2017-02-14T09:40:18.130Z,284.5
2017-02-14T09:46:17.944Z,283.9
2017-02-14T09:52:17.895Z,284.7
2017-02-14T09:58:17.495Z,284.3
2017-02-14T10:04:18.343Z,284
2017-02-14T10:10:18.087Z,283.9
2017-02-14T10:16:18.202Z,284
2017-02-14T10:22:17.822Z,284
2017-02-14T10:28:17.429Z,284.9
2017-02-14T10:34:17.883Z,284.4
2017-02-14T10:45:18.102Z,284.6
2017-02-14T10:56:17.545Z,284.9
2017-02-14T11:07:17.750Z,283.4
2017-02-14T11:18:17.980Z,281.6
2017-02-14T11:29:17.938Z,281.4
2017-02-14T11:40:17.950Z,283.8
2017-02-14T11:51:17.943Z,286.1
2017-02-14T12:02:17.984Z,284.2
2017-02-14T12:13:18.534Z,284.5
2017-02-14T12:24:18.053Z,283.1
2017-02-14T12:35:17.690Z,291.4
2017-02-14T12:46:18.922Z,285.8
2017-02-14T12:57:17.613Z,284.3
2017-02-14T13:08:17.937Z,286.7
2017-02-14T13:19:18.457Z,284.9
2017-02-14T13:30:18.312Z,285.4
2017-02-14T13:41:18.103Z,285.4
2017-02-14T13:52:18.255Z,285.9
2017-02-14T14:03:18.248Z,285.4
2017-02-14T14:14:17.586Z,283.5
2017-02-14T14:25:18.445Z,281.9
2017-02-14T14:36:17.471Z,283.1
2017-02-14T14:47:18.355Z,281.8
2017-02-14T14:58:18.084Z,280.9
2017-02-14T15:09:17.726Z,282.4
2017-02-14T15:20:18.745Z,281.9
2017-02-14T15:31:18.158Z,279.4
2017-02-14T15:42:18.128Z,280.4
2017-02-14T15:53:18.238Z,277.9
2017-02-14T16:04:17.850Z,279.4
2017-02-14T16:15:17.916Z,280.8
2017-02-14T16:26:17.804Z,282.9
2017-02-14T16:37:17.714Z,282.7
2017-02-14T16:48:17.811Z,282.7
2017-02-14T16:59:17.891Z,282.2
2017-02-14T17:10:18.154Z,281.6
2017-02-14T17:21:18.030Z,279.4
2017-02-14T17:32:18.220Z,280.8
2017-02-14T17:43:17.793Z,280.3
2017-02-14T17:54:17.559Z,280.4
2017-02-14T18:05:18.093Z,270.1
2017-02-14T18:16:18.128Z,268.8
2017-02-14T18:27:17.588Z,266.7
2017-02-14T18:38:18.183Z,264.5
2017-02-14T18:49:18.220Z,274.8
2017-02-14T19:00:18.304Z,266.5
2017-02-14T19:11:17.719Z,276.7
2017-02-14T19:22:17.798Z,276.9
2017-02-14T19:33:17.939Z,277.2
2017-02-14T19:44:18.635Z,278.1
2017-02-14T19:55:18.081Z,277
2017-02-14T20:06:17.960Z,281.2
2017-02-14T20:17:17.952Z,281.5
2017-02-14T20:28:17.740Z,282.1
2017-02-14T20:39:17.725Z,282.4
2017-02-14T20:50:18.442Z,282.7
2017-02-14T21:01:18.232Z,282.3
2017-02-14T21:12:17.995Z,282.2
2017-02-14T21:23:17.680Z,282.9
2017-02-14T21:34:18.605Z,282.7
2017-02-14T21:45:18.094Z,282.7
2017-02-14T21:56:17.804Z,282.9
2017-02-14T22:07:17.781Z,283
2017-02-14T22:18:17.831Z,283.3
2017-02-14T22:29:18.669Z,283.2
2017-02-14T22:40:18.056Z,282.8
2017-02-14T22:51:18.106Z,282.9
2017-02-14T23:02:17.873Z,282.6
2017-02-14T23:13:18.558Z,283.2
2017-02-14T23:24:18.128Z,283.4
2017-02-14T23:35:17.973Z,283.1
2017-02-14T23:46:17.828Z,288.7
2017-02-14T23:57:17.906Z,283.2
